Time;durP1;ratioP1;P1;durP2;ratioP2;P2;SDS_P1;SDS_P2;PMS_P1;PMS_P2;Temp;Humidity;BMP_temperature;BMP_pressure;BME280_temperature;BME280_humidity;BME280_pressure;Samples;Min_cycle;Max_cycle;Signal;HPM_P1;HPM_P2
2023/09/07 07:01:27;;;;;;;0.20;0.20;;;26.90;99.90;31.30;101764.00;;;;5592997;22;15113775;-76
2023/09/07 07:03:54;;;;;;;1.60;1.50;;;26.90;99.90;32.50;101723.00;;;;6250674;22;20399;-77
2023/09/07 07:06:20;;;;;;;1.50;1.50;;;27.60;99.90;33.60;101723.00;;;;6276770;22;20137;-75
2023/09/07 07:08:51;;;;;;;2.53;1.83;;;28.30;99.90;32.00;101741.00;;;;6278451;22;20141;-76
2023/09/07 07:11:31;;;;;;;3.40;2.15;;;28.20;99.90;32.00;101737.00;;;;6276726;22;20160;-78
2023/09/07 07:14:15;;;;;;;1.55;0.75;;;27.90;99.90;32.10;101740.00;;;;6251668;22;20163;-78
2023/09/07 07:16:47;;;;;;;4.00;1.48;;;27.60;99.90;31.20;101767.00;;;;6276216;22;20165;-75
2023/09/07 07:19:18;;;;;;;4.10;1.60;;;27.20;99.90;30.70;101769.00;;;;6251160;22;20541;-73
2023/09/07 07:21:53;;;;;;;2.25;2.10;;;26.90;99.90;31.80;101768.00;;;;6276523;22;20161;-74
2023/09/07 07:24:22;;;;;;;1.10;0.63;;;27.10;99.90;31.90;101766.00;;;;6276652;22;20224;-73
2023/09/07 07:26:51;;;;;;;1.00;1.00;;;27.30;99.90;31.30;101776.00;;;;6276503;22;20222;-73
2023/09/07 07:29:24;;;;;;;0.63;0.63;;;27.50;99.90;32.30;101737.00;;;;6275867;22;20158;-74
2023/09/07 07:32:00;;;;;;;0.50;0.50;;;27.60;99.90;32.60;101734.00;;;;6276171;22;20141;-71
2023/09/07 07:34:39;;;;;;;0.45;0.45;;;28.00;99.90;32.40;101756.00;;;;6251601;22;20231;-72
2023/09/07 07:37:08;;;;;;;0.38;0.38;;;28.10;99.90;32.50;101733.00;;;;6276333;22;20608;-71
2023/09/07 07:39:36;;;;;;;3.08;1.70;;;27.90;99.90;32.50;101724.00;;;;6251549;22;20163;-71
2023/09/07 07:42:18;;;;;;;2.30;1.27;;;28.20;99.90;33.30;101737.00;;;;6276250;22;20226;-71
2023/09/07 07:44:58;;;;;;;0.75;0.75;;;28.50;99.90;33.50;101739.00;;;;6276697;22;20569;-71
2023/09/07 07:47:38;;;;;;;2.05;1.50;;;28.80;99.90;33.30;101731.00;;;;6251084;22;20176;-71
2023/09/07 07:50:06;;;;;;;1.48;1.38;;;28.80;99.90;32.80;101738.00;;;;6276621;22;20191;-71
2023/09/07 07:52:36;;;;;;;0.38;0.38;;;28.90;99.90;33.00;101755.00;;;;6276711;22;20211;-71
2023/09/07 07:55:07;;;;;;;0.17;0.17;;;28.50;99.90;33.50;101736.00;;;;6276882;22;20181;-71
2023/09/07 07:57:39;;;;;;;0.10;0.10;;;28.70;99.90;33.90;101739.00;;;;6250758;22;20565;-71
2023/09/07 08:00:14;;;;;;;0.10;0.10;;;29.20;99.90;33.70;101727.00;;;;6275420;22;20173;-72
2023/09/07 08:02:41;;;;;;;0.20;0.20;;;29.10;99.90;34.30;101715.00;;;;6273757;22;20234;-72
2023/09/07 08:05:27;;;;;;;0.68;0.68;;;29.40;99.90;33.90;101728.00;;;;6250708;22;20165;-72
2023/09/07 08:07:53;;;;;;;0.85;0.43;;;29.60;99.90;31.40;101778.00;;;;6250341;22;20600;-72
2023/09/07 08:10:19;;;;;;;0.20;0.20;;;28.70;99.90;30.70;101797.00;;;;6250641;22;20157;-72
2023/09/07 08:12:55;;;;;;;0.63;0.63;;;28.00;99.90;30.10;101817.00;;;;6250468;22;20480;-72
2023/09/07 08:15:24;;;;;;;0.43;0.43;;;27.50;99.90;32.60;101763.00;;;;6275177;22;20140;-72
2023/09/07 08:18:06;;;;;;;0.57;0.57;;;28.00;99.90;32.80;101749.00;;;;6275658;22;20226;-72
2023/09/07 08:20:37;;;;;;;0.10;0.10;;;28.30;99.90;33.40;101749.00;;;;6275528;22;20164;-72
2023/09/07 08:23:10;;;;;;;2.95;1.10;;;28.90;99.90;30.80;101781.00;;;;6250564;22;20204;-72
2023/09/07 08:25:47;;;;;;;0.13;0.13;;;28.60;99.90;33.40;101753.00;;;;6275496;22;20161;-69
2023/09/07 08:28:18;;;;;;;0.10;0.10;;;28.80;99.90;32.50;101750.00;;;;6275043;22;20140;-72
2023/09/07 08:30:49;;;;;;;0.20;0.20;;;28.70;99.90;32.60;101759.00;;;;6274068;22;20153;-73
2023/09/07 08:33:30;;;;;;;1.10;0.68;;;28.30;99.90;33.90;101713.00;;;;6276936;22;20476;-70
2023/09/07 08:36:05;;;;;;;0.57;0.57;;;29.00;99.90;33.70;101735.00;;;;6275759;22;20161;-70
2023/09/07 08:38:39;;;;;;;0.10;0.10;;;29.50;99.90;33.80;101725.00;;;;6250121;22;20236;-71
2023/09/07 08:41:09;;;;;;;0.20;0.20;;;29.70;99.90;33.80;101726.00;;;;6275820;22;20133;-73
2023/09/07 08:43:53;;;;;;;0.43;0.43;;;29.90;99.90;34.50;101703.00;;;;6249964;22;20238;-70
2023/09/07 08:46:30;;;;;;;1.13;0.75;;;30.20;99.90;34.90;101703.00;;;;6275689;22;20228;-70
2023/09/07 08:48:59;;;;;;;0.55;0.50;;;30.50;99.90;34.90;101700.00;;;;6250784;22;20153;-71
2023/09/07 08:51:27;;;;;;;0.75;0.75;;;30.50;99.90;34.90;101697.00;;;;6274106;22;20498;-70
2023/09/07 08:53:57;;;;;;;0.77;0.77;;;30.50;99.90;34.70;101712.00;;;;6248051;22;20156;-70
2023/09/07 08:56:26;;;;;;;0.13;0.13;;;30.60;99.90;35.50;101703.00;;;;6250477;22;20153;-71
2023/09/07 08:59:04;;;;;;;0.30;0.30;;;30.60;99.90;35.30;101715.00;;;;6274894;22;20493;-71
2023/09/07 09:01:40;;;;;;;1.17;1.00;;;31.10;99.90;35.00;101693.00;;;;6274218;22;20169;-71
2023/09/07 09:04:27;;;;;;;0.22;0.22;;;30.80;99.90;35.10;101711.00;;;;6250162;22;20243;-71
2023/09/07 09:07:02;;;;;;;1.35;1.25;;;30.90;99.90;34.00;101740.00;;;;6275334;22;20230;-71
2023/09/07 09:09:28;;;;;;;0.45;0.45;;;30.50;99.90;34.10;101740.00;;;;6275479;22;20140;-71
2023/09/07 09:12:14;;;;;;;0.50;0.50;;;30.00;99.90;33.80;101747.00;;;;6250144;22;20593;-71
2023/09/07 09:15:03;;;;;;;1.27;0.93;;;29.90;99.90;34.30;101739.00;;;;6249897;22;20240;-71
2023/09/07 09:17:32;;;;;;;0.73;0.73;;;30.10;99.90;34.90;101730.00;;;;6249281;22;20254;-71
2023/09/07 09:20:09;;;;;;;0.47;0.47;;;30.30;99.90;34.50;101729.00;;;;6249708;22;20161;-71
2023/09/07 09:22:38;;;;;;;0.70;0.70;;;30.30;99.90;34.90;101714.00;;;;6275096;22;20268;-71
2023/09/07 09:25:05;;;;;;;0.60;0.25;;;30.50;99.90;35.00;101727.00;;;;6274692;22;20148;-71
2023/09/07 09:27:39;;;;;;;0.32;0.32;;;30.70;99.90;35.30;101718.00;;;;6249454;22;20157;-71
2023/09/07 09:30:06;;;;;;;0.68;0.50;;;30.80;99.90;33.10;101749.00;;;;6274506;22;20160;-71
2023/09/07 09:32:35;;;;;;;0.45;0.40;;;29.90;99.90;34.10;101744.00;;;;6249614;22;20164;-71
2023/09/07 09:35:09;;;;;;;0.28;0.20;;;29.80;99.90;33.40;101760.00;;;;6275235;22;20243;-71
2023/09/07 09:37:48;;;;;;;0.80;0.80;;;29.50;99.90;34.20;101727.00;;;;6249546;22;20164;-71
2023/09/07 09:40:18;;;;;;;0.20;0.20;;;29.80;99.90;35.20;101719.00;;;;6274829;22;20141;-71
2023/09/07 09:42:51;;;;;;;2.67;0.88;;;30.40;99.90;33.90;101728.00;;;;6274817;22;20267;-71
2023/09/07 09:45:19;;;;;;;0.38;0.38;;;30.10;99.90;34.90;101724.00;;;;6275926;22;20156;-71
2023/09/07 09:47:50;;;;;;;0.52;0.50;;;30.40;99.90;35.30;101705.00;;;;6275053;22;20141;-71
2023/09/07 09:50:19;;;;;;;0.22;0.22;;;30.70;99.90;35.50;101714.00;;;;6249176;22;20160;-71
2023/09/07 09:52:49;;;;;;;0.20;0.20;;;30.90;99.90;35.90;101692.00;;;;6275094;22;20144;-72
2023/09/07 09:55:28;;;;;;;0.50;0.50;;;31.30;99.90;35.70;101677.00;;;;6249440;22;20221;-71
2023/09/07 09:57:57;;;;;;;0.90;0.90;;;31.20;99.90;36.10;101696.00;;;;6274088;22;20137;-71
2023/09/07 10:00:37;;;;;;;0.93;0.93;;;31.50;99.90;36.40;101686.00;;;;6274133;22;20165;-71
2023/09/07 10:03:07;;;;;;;0.50;0.40;;;31.60;99.90;36.60;101697.00;;;;6275171;22;20214;-71
2023/09/07 10:05:36;;;;;;;0.68;0.68;;;31.90;99.90;35.60;101714.00;;;;6249403;22;20599;-71
2023/09/07 10:08:16;;;;;;;0.43;0.43;;;31.80;99.90;36.60;101699.00;;;;6274477;22;20230;-71
2023/09/07 10:10:47;;;;;;;0.45;0.45;;;31.90;99.90;36.70;101702.00;;;;6274203;22;20133;-71
2023/09/07 10:13:31;;;;;;;0.43;0.43;;;32.10;99.90;36.20;101707.00;;;;6273947;22;20671;-70
2023/09/07 10:16:07;;;;;;;0.10;0.10;;;32.00;99.90;36.80;101702.00;;;;6274673;22;20156;-71
2023/09/07 10:18:44;;;;;;;0.63;0.63;;;32.30;99.90;37.20;101699.00;;;;6274964;22;20160;-70
2023/09/07 10:33:30;;;;;;;0.90;0.75;;;30.50;99.90;35.20;101744.00;;;;5065217;28;20910;-70
2023/09/07 10:35:57;;;;;;;1.33;1.23;;;30.90;99.90;34.40;101729.00;;;;5045589;28;20204;-73
2023/09/07 10:38:31;;;;;;;0.20;0.20;;;30.90;99.90;35.90;101656.00;;;;5047792;28;20178;-70
2023/09/07 10:41:08;;;;;;;0.57;0.57;;;31.30;99.90;36.40;101707.00;;;;5030491;28;20179;-71
2023/09/07 10:43:39;;;;;;;0.50;0.43;;;31.60;99.90;36.80;101690.00;;;;5049206;28;20189;-73
2023/09/07 10:46:05;;;;;;;0.30;0.30;;;32.10;99.90;37.00;101678.00;;;;5048712;28;20190;-73
2023/09/07 10:49:21;;;;;;;0.47;0.43;;;32.20;99.90;36.70;101693.00;;;;5049041;28;20586;-71
2023/09/07 10:51:54;;;;;;;1.05;0.88;;;32.10;99.90;37.00;101679.00;;;;5036682;28;20217;-72
2023/09/07 10:54:57;;;;;;;1.38;0.95;;;32.60;99.90;35.10;101703.00;;;;5047907;28;20189;-73
2023/09/07 10:57:32;;;;;;;2.40;2.20;;;32.10;99.90;33.20;101718.00;;;;5019398;28;20206;-70
2023/09/07 10:59:58;;;;;;;3.08;1.42;;;31.10;99.90;32.70;101729.00;;;;5012686;28;20220;-70
2023/09/07 11:02:38;;;;;;;0.50;0.50;;;30.20;99.90;35.10;101702.00;;;;5026732;28;20641;-70
2023/09/07 11:05:27;;;;;;;0.80;0.60;;;30.60;99.90;34.50;101707.00;;;;5049565;28;20205;-70
2023/09/07 11:08:32;;;;;;;0.20;0.20;;;30.90;99.90;36.20;101687.00;;;;5045600;28;20179;-70
2023/09/07 11:11:14;;;;;;;0.60;0.60;;;31.50;99.90;36.00;101690.00;;;;5048223;28;20195;-71
2023/09/07 11:14:06;;;;;;;0.10;0.10;;;31.90;99.90;35.60;101692.00;;;;5031262;28;20197;-71
2023/09/07 11:16:41;;;;;;;0.52;0.52;;;31.30;99.90;34.60;101704.00;;;;4998905;28;20235;-71
2023/09/07 11:19:24;;;;;;;1.17;0.43;;;31.40;99.90;35.20;101694.00;;;;5042844;28;20220;-71
2023/09/07 11:22:05;;;;;;;1.98;0.85;;;31.10;99.90;34.90;101699.00;;;;5036285;28;20206;-70
2023/09/07 11:24:40;;;;;;;0.28;0.28;;;31.30;99.90;33.80;101685.00;;;;5047701;28;20225;-71
2023/09/07 11:27:17;;;;;;;0.35;0.35;;;30.80;99.90;35.50;101632.00;;;;5047618;28;20269;-71
2023/09/07 11:29:56;;;;;;;0.20;0.20;;;31.20;99.90;36.10;101658.00;;;;5049096;28;20568;-71
2023/09/07 11:32:39;;;;;;;0.25;0.25;;;31.70;99.90;36.70;101668.00;;;;5048917;28;20562;-71
2023/09/07 11:35:35;;;;;;;2.08;0.75;;;32.10;99.90;36.30;101672.00;;;;5043763;28;20194;-71
2023/09/07 11:38:22;;;;;;;3.17;0.98;;;32.10;99.90;35.60;101666.00;;;;5047399;28;20269;-71
2023/09/07 11:41:11;;;;;;;0.30;0.30;;;31.80;99.90;35.10;101674.00;;;;5037194;28;20179;-71
2023/09/07 11:43:55;;;;;;;0.65;0.65;;;31.30;99.90;35.50;101652.00;;;;5041300;28;20183;-71
2023/09/07 11:46:41;;;;;;;0.30;0.30;;;31.30;99.90;35.50;101679.00;;;;5034056;28;20256;-71
2023/09/07 11:49:10;;;;;;;0.13;0.13;;;31.30;99.90;35.50;101662.00;;;;5050199;28;20260;-71
2023/09/07 11:51:46;;;;;;;0.20;0.20;;;31.30;99.90;35.40;101677.00;;;;5031866;28;20578;-71
2023/09/07 11:54:37;;;;;;;0.40;0.40;;;31.20;99.90;35.40;101648.00;;;;5032935;28;20597;-71
2023/09/07 11:57:06;;;;;;;0.65;0.32;;;31.10;99.90;35.70;101647.00;;;;4996318;28;20242;-72
2023/09/07 11:59:47;;;;;;;1.25;1.15;;;31.20;99.90;34.10;101677.00;;;;5026687;28;20196;-71
2023/09/07 12:02:30;;;;;;;0.32;0.32;;;30.50;99.90;34.80;101685.00;;;;5031092;28;20214;-71
2023/09/07 12:05:14;;;;;;;0.40;0.40;;;30.50;99.90;34.20;101691.00;;;;5034258;28;20189;-72
2023/09/07 12:08:05;;;;;;;1.60;1.58;;;30.30;99.90;34.10;101688.00;;;;5033213;28;20653;-71
2023/09/07 12:10:39;;;;;;;2.95;0.98;;;30.30;99.90;34.60;101673.00;;;;5032203;28;20183;-72
2023/09/07 12:13:11;;;;;;;1.00;0.80;;;30.40;99.90;34.90;101654.00;;;;5033485;28;20213;-72
2023/09/07 12:15:49;;;;;;;0.77;0.52;;;30.60;99.90;34.00;101687.00;;;;5029260;28;20609;-74
2023/09/07 12:18:33;;;;;;;0.40;0.40;;;30.60;99.90;35.00;101667.00;;;;5057569;28;20194;-71
2023/09/07 12:21:22;;;;;;;0.30;0.30;;;30.50;99.90;35.00;101639.00;;;;5032702;28;20185;-72
2023/09/07 12:24:12;;;;;;;0.43;0.43;;;30.60;99.90;34.90;101660.00;;;;5017136;28;20183;-72
2023/09/07 12:26:41;;;;;;;0.40;0.40;;;30.80;99.90;35.20;101650.00;;;;5031132;28;20276;-72
2023/09/07 12:29:16;;;;;;;0.47;0.32;;;30.70;99.90;35.00;101660.00;;;;5031231;28;20234;-72
2023/09/07 12:31:45;;;;;;;0.38;0.38;;;30.80;99.90;34.90;101651.00;;;;5060123;28;20225;-72
2023/09/07 12:34:14;;;;;;;0.90;0.88;;;30.60;99.90;35.20;101652.00;;;;5032759;28;20179;-72
2023/09/07 12:36:43;;;;;;;0.10;0.10;;;30.90;99.90;35.50;101643.00;;;;5033148;28;20640;-72
2023/09/07 12:39:39;;;;;;;0.98;0.73;;;31.00;99.90;35.50;101648.00;;;;5034031;28;20206;-74
2023/09/07 12:42:21;;;;;;;0.43;0.30;;;31.20;99.90;33.90;101637.00;;;;5041436;28;20329;-73
2023/09/07 12:44:50;;;;;;;1.15;0.85;;;30.60;99.90;34.00;101658.00;;;;5033671;28;20178;-72
2023/09/07 12:47:36;;;;;;;0.70;0.70;;;30.10;99.90;34.70;101654.00;;;;5030327;28;20648;-72
2023/09/07 12:50:06;;;;;;;0.32;0.32;;;30.30;99.90;34.90;101627.00;;;;5050229;28;20194;-72
2023/09/07 12:52:52;;;;;;;2.78;1.27;;;30.50;99.90;35.20;101631.00;;;;5011621;28;20273;-72
2023/09/07 12:55:44;;;;;;;0.47;0.47;;;30.80;99.90;35.70;101624.00;;;;5025803;28;20183;-73
2023/09/07 12:58:33;;;;;;;0.30;0.30;;;31.00;99.90;35.00;101619.00;;;;5025674;28;20286;-72
2023/09/07 13:01:15;;;;;;;0.10;0.10;;;31.00;99.90;35.50;101617.00;;;;4992312;28;20196;-73
2023/09/07 13:03:53;;;;;;;0.95;0.30;;;31.20;99.90;34.40;101640.00;;;;5025009;28;20202;-73
2023/09/07 13:06:22;;;;;;;0.13;0.13;;;30.90;99.90;34.70;101627.00;;;;5016284;28;20189;-73
2023/09/07 13:09:07;;;;;;;0.17;0.17;;;30.50;99.90;35.30;101617.00;;;;5034339;28;20187;-73
2023/09/07 13:11:42;;;;;;;0.20;0.20;;;30.80;99.90;35.60;101628.00;;;;5029958;28;20222;-73
2023/09/07 13:14:20;;;;;;;0.93;0.93;;;31.10;99.90;35.50;101608.00;;;;5065359;28;20273;-73
2023/09/07 13:17:22;;;;;;;0.10;0.10;;;31.20;99.90;35.80;101608.00;;;;5041833;28;20676;-73
2023/09/07 13:20:19;;;;;;;1.02;0.52;;;31.20;99.90;35.70;101592.00;;;;5024724;28;20237;-73
2023/09/07 13:22:51;;;;;;;0.45;0.40;;;31.30;99.90;35.30;101609.00;;;;5043721;28;20676;-73
2023/09/07 13:25:18;;;;;;;1.80;1.00;;;30.90;99.90;35.40;101599.00;;;;5031715;28;20256;-73
2023/09/07 13:28:29;;;;;;;0.45;0.45;;;31.10;99.90;35.20;101601.00;;;;5032011;28;20174;-73
2023/09/07 13:30:55;;;;;;;0.52;0.45;;;31.20;99.90;35.20;101601.00;;;;4992628;28;20200;-73
2023/09/07 13:33:33;;;;;;;0.32;0.32;;;31.00;99.90;35.50;101595.00;;;;5024764;28;20217;-74
2023/09/07 13:36:17;;;;;;;0.10;0.10;;;31.10;99.90;35.60;101587.00;;;;5032532;28;20317;-73
2023/09/07 13:38:48;;;;;;;0.45;0.45;;;31.10;99.90;36.00;101575.00;;;;5014163;28;20718;-73
2023/09/07 13:41:32;;;;;;;0.10;0.10;;;31.30;99.90;35.80;101598.00;;;;5031862;28;20178;-73
2023/09/07 13:43:58;;;;;;;0.10;0.10;;;31.30;99.90;34.50;101602.00;;;;5032121;28;20179;-73
2023/09/07 13:46:29;;;;;;;0.30;0.30;;;30.80;99.90;35.10;101598.00;;;;5031158;28;20241;-73
2023/09/07 13:49:10;;;;;;;0.20;0.20;;;30.90;99.90;35.10;101585.00;;;;5031851;28;20312;-73
2023/09/07 13:51:44;;;;;;;1.20;0.68;;;31.00;99.90;35.40;101596.00;;;;5015615;28;20548;-73
2023/09/07 13:54:19;;;;;;;0.25;0.25;;;31.10;99.90;35.60;101590.00;;;;5031859;28;20685;-73
2023/09/07 13:56:54;;;;;;;0.73;0.73;;;31.20;99.90;35.30;101591.00;;;;5053294;28;20186;-73
2023/09/07 13:59:28;;;;;;;0.73;0.73;;;31.20;99.90;35.00;101591.00;;;;5027854;28;20193;-73
2023/09/07 14:01:59;;;;;;;0.52;0.52;;;31.10;99.90;35.30;101571.00;;;;5061232;28;20183;-73
2023/09/07 14:04:25;;;;;;;0.85;0.85;;;30.90;99.90;34.60;101595.00;;;;5027879;28;20204;-73
2023/09/07 14:07:10;;;;;;;0.38;0.38;;;30.80;99.90;35.10;101584.00;;;;5030392;28;20185;-74
2023/09/07 14:09:47;;;;;;;0.90;0.88;;;30.90;99.90;34.90;101595.00;;;;5045288;28;20252;-75
2023/09/07 14:12:21;;;;;;;0.13;0.13;;;30.80;99.90;35.20;101596.00;;;;5029030;28;20285;-76
2023/09/07 14:14:55;;;;;;;1.42;1.13;;;30.90;99.90;34.80;101598.00;;;;5028969;28;20183;-76
2023/09/07 14:17:30;;;;;;;0.40;0.40;;;30.70;99.90;35.30;101593.00;;;;5015810;28;20187;-76
2023/09/07 14:19:59;;;;;;;0.20;0.20;;;30.90;99.90;35.10;101596.00;;;;5031302;28;20257;-75
2023/09/07 14:22:42;;;;;;;1.23;1.13;;;30.90;99.90;34.20;101613.00;;;;5031436;28;20197;-76
2023/09/07 14:25:16;;;;;;;0.20;0.20;;;30.60;99.90;34.90;101599.00;;;;5015751;28;20223;-75
2023/09/07 14:28:29;;;;;;;0.10;0.10;;;30.70;99.90;35.40;101583.00;;;;5032175;28;20191;-75
2023/09/07 14:31:05;;;;;;;0.40;0.40;;;30.70;99.90;35.00;101590.00;;;;5026847;28;20195;-75
2023/09/07 14:33:41;;;;;;;0.45;0.30;;;30.90;99.90;34.60;101589.00;;;;5030900;28;20293;-75
2023/09/07 14:36:21;;;;;;;0.35;0.30;;;30.70;99.90;35.00;101593.00;;;;5030936;28;20178;-74
2023/09/07 14:39:02;;;;;;;0.30;0.30;;;30.60;99.90;34.40;101595.00;;;;5041040;28;20656;-75
2023/09/07 14:41:40;;;;;;;0.63;0.63;;;30.50;99.90;34.90;101586.00;;;;5039508;28;20187;-74
2023/09/07 14:44:22;;;;;;;0.93;0.68;;;30.60;99.90;34.70;101579.00;;;;5040006;28;20659;-74
2023/09/07 14:46:55;;;;;;;1.20;1.05;;;30.60;99.90;34.80;101585.00;;;;5039990;28;20194;-73
2023/09/07 14:49:20;;;;;;;0.40;0.40;;;30.60;99.90;34.50;101594.00;;;;5039045;28;20659;-72
2023/09/07 14:51:49;;;;;;;2.03;1.27;;;30.50;99.90;33.70;101602.00;;;;5041327;28;20206;-72
2023/09/07 14:54:21;;;;;;;2.38;2.17;;;30.30;99.90;34.50;101594.00;;;;5040380;28;20202;-72
2023/09/07 14:57:12;;;;;;;0.40;0.40;;;30.20;99.90;35.00;101585.00;;;;5039973;28;20184;-72
2023/09/07 14:59:39;;;;;;;3.47;1.30;;;30.40;99.90;34.90;101586.00;;;;5039276;28;20235;-71
2023/09/07 15:02:31;;;;;;;0.60;0.60;;;30.70;99.90;34.80;101583.00;;;;5038958;28;20190;-72
2023/09/07 15:05:07;;;;;;;;;;;;;;;;;;;;;
2023/09/07 15:07:36;;;;;;;0.73;0.73;;;30.50;99.90;34.40;101588.00;;;;5039751;28;20193;-72
2023/09/07 15:10:04;;;;;;;0.10;0.10;;;30.50;99.90;34.50;101586.00;;;;5022457;28;20191;-72
2023/09/07 15:12:49;;;;;;;0.95;0.95;;;30.40;99.90;34.50;101581.00;;;;5024061;28;20302;-72
2023/09/07 15:15:20;;;;;;;1.40;0.85;;;30.40;99.90;34.70;101577.00;;;;5021071;28;20195;-71
2023/09/07 15:17:52;;;;;;;0.10;0.10;;;30.50;99.90;34.90;101586.00;;;;5030068;28;20694;-72
2023/09/07 15:20:20;;;;;;;0.43;0.43;;;30.50;99.90;34.30;101591.00;;;;5025376;28;20183;-72
2023/09/07 15:22:46;;;;;;;0.10;0.10;;;30.40;99.90;35.10;101568.00;;;;5042607;28;20198;-72
2023/09/07 15:25:15;;;;;;;0.30;0.30;;;30.60;99.90;35.00;101583.00;;;;5028812;28;20190;-71
2023/09/07 15:27:49;;;;;;;0.17;0.17;;;30.70;99.90;34.80;101589.00;;;;5027452;28;20224;-74
2023/09/07 15:30:15;;;;;;;0.55;0.55;;;30.50;99.90;35.00;101588.00;;;;5043382;28;20243;-72
2023/09/07 15:32:44;;;;;;;0.20;0.20;;;30.70;99.90;34.30;101589.00;;;;5035716;28;20222;-71
2023/09/07 15:35:10;;;;;;;0.28;0.28;;;30.30;99.90;34.60;101592.00;;;;5033183;28;20215;-71
2023/09/07 15:37:37;;;;;;;0.20;0.20;;;30.30;99.90;35.40;101576.00;;;;5034187;28;20547;-71
2023/09/07 15:40:04;;;;;;;1.00;0.22;;;30.50;99.90;35.50;101577.00;;;;5034414;28;20238;-72
2023/09/07 15:42:31;;;;;;;0.10;0.10;;;30.80;99.90;35.80;101546.00;;;;5034418;28;20191;-73
2023/09/07 15:44:59;;;;;;;0.73;0.73;;;31.00;99.90;35.30;101567.00;;;;5032349;28;20179;-73
2023/09/07 15:47:31;;;;;;;0.28;0.28;;;30.80;99.90;35.50;101562.00;;;;5034342;28;20625;-73
2023/09/07 15:49:57;;;;;;;0.30;0.30;;;30.90;99.90;35.20;101561.00;;;;5031220;28;20183;-74
2023/09/07 15:52:29;;;;;;;0.20;0.20;;;30.80;99.90;34.90;101561.00;;;;5031835;28;20309;-74
2023/09/07 15:54:58;;;;;;;0.10;0.10;;;30.70;99.90;34.90;101565.00;;;;5034256;28;20202;-73
2023/09/07 15:57:49;;;;;;;;;;;;;;;;;;;;;
2023/09/07 16:00:19;;;;;;;0.35;0.35;;;30.50;99.90;35.10;101557.00;;;;5034522;28;20547;-73
2023/09/07 16:02:47;;;;;;;1.20;1.20;;;30.70;99.90;34.50;101557.00;;;;5017879;28;20261;-73
2023/09/07 16:05:25;;;;;;;0.28;0.28;;;30.50;99.90;34.80;101568.00;;;;5018148;28;20195;-72
2023/09/07 16:07:54;;;;;;;0.38;0.38;;;30.30;99.90;35.40;101535.00;;;;5031165;28;20179;-72
2023/09/07 16:10:23;;;;;;;0.13;0.13;;;30.60;99.90;34.40;101566.00;;;;5027489;28;20270;-72
2023/09/07 16:12:50;;;;;;;0.28;0.28;;;30.70;99.90;34.90;101566.00;;;;5032570;28;20207;-72
2023/09/07 16:15:18;;;;;;;0.68;0.68;;;30.60;99.90;34.70;101560.00;;;;5020940;28;20187;-74
2023/09/07 16:17:50;;;;;;;0.13;0.13;;;30.40;99.90;34.40;101563.00;;;;5035914;28;20539;-74
2023/09/07 16:20:17;;;;;;;0.63;0.30;;;30.30;99.90;34.60;101564.00;;;;5033175;28;20183;-73
2023/09/07 16:22:43;;;;;;;0.25;0.25;;;30.30;99.90;34.60;101572.00;;;;5030925;28;20671;-72
2023/09/07 16:25:11;;;;;;;0.30;0.30;;;30.20;99.90;34.50;101568.00;;;;5031681;28;20182;-72
2023/09/07 16:27:41;;;;;;;0.38;0.38;;;30.20;99.90;35.30;101565.00;;;;5032987;28;20179;-73
2023/09/07 16:30:10;;;;;;;0.25;0.25;;;30.40;99.90;35.70;101555.00;;;;5034909;28;20178;-73
2023/09/07 16:32:38;;;;;;;0.57;0.57;;;30.70;99.90;35.40;101536.00;;;;5030724;28;20241;-72
2023/09/07 16:35:10;;;;;;;0.10;0.10;;;30.70;99.90;35.50;101529.00;;;;5033694;28;20178;-74
2023/09/07 16:37:40;;;;;;;0.30;0.30;;;30.70;99.90;35.80;101555.00;;;;5032961;28;20182;-73
2023/09/07 16:40:11;;;;;;;0.30;0.30;;;30.80;99.90;35.40;101558.00;;;;5028860;28;20195;-73
2023/09/07 16:42:37;;;;;;;0.10;0.10;;;30.80;99.90;35.30;101562.00;;;;5046005;28;20237;-75
2023/09/07 16:45:12;;;;;;;0.20;0.20;;;30.70;99.90;35.00;101559.00;;;;5032452;28;20179;-75
2023/09/07 16:47:38;;;;;;;0.50;0.50;;;30.50;99.90;35.60;101559.00;;;;5031227;28;20249;-73
2023/09/07 16:50:09;;;;;;;0.10;0.10;;;30.70;99.90;35.70;101538.00;;;;5059366;28;20637;-75
2023/09/07 16:52:44;;;;;;;0.45;0.45;;;30.80;99.90;35.30;101540.00;;;;5029631;28;20264;-73
2023/09/07 16:55:13;;;;;;;0.10;0.10;;;30.80;99.90;35.70;101539.00;;;;5049273;28;20251;-72
2023/09/07 16:57:38;;;;;;;0.10;0.10;;;30.80;99.90;35.40;101561.00;;;;5032885;28;20186;-73
2023/09/07 17:00:22;;;;;;;0.47;0.47;;;30.90;99.90;35.10;101563.00;;;;5034496;28;20187;-72
2023/09/07 17:03:02;;;;;;;0.10;0.10;;;30.60;99.90;35.30;101563.00;;;;5032853;28;20725;-73
2023/09/07 17:06:01;;;;;;;0.10;0.10;;;30.50;99.90;35.50;101553.00;;;;5055711;28;20672;-72
2023/09/07 17:08:28;;;;;;;0.10;0.10;;;30.70;99.90;35.50;101566.00;;;;4972890;28;20227;-72
2023/09/07 17:11:10;;;;;;;0.10;0.10;;;30.60;99.90;35.40;101561.00;;;;4986108;28;20235;-72
2023/09/07 17:13:54;;;;;;;0.50;0.50;;;30.60;99.90;35.40;101568.00;;;;4951740;28;20231;-72
2023/09/07 17:16:26;;;;;;;0.10;0.10;;;30.70;99.90;35.70;101539.00;;;;4961406;28;20663;-72
2023/09/07 17:19:02;;;;;;;0.30;0.30;;;30.80;99.90;34.90;101567.00;;;;4959888;28;20231;-72
2023/09/07 17:21:43;;;;;;;0.30;0.30;;;30.50;99.90;35.50;101552.00;;;;4976280;28;20195;-73
2023/09/07 17:24:41;;;;;;;0.20;0.20;;;30.50;99.90;35.50;101573.00;;;;4976173;28;20585;-72
2023/09/07 17:27:29;;;;;;;0.10;0.10;;;30.50;99.90;35.20;101579.00;;;;4959886;28;20275;-73
2023/09/07 17:29:56;;;;;;;0.10;0.10;;;30.40;99.90;35.50;101574.00;;;;4972591;28;20195;-72
2023/09/07 17:32:45;;;;;;;0.10;0.10;;;30.40;99.90;35.70;101578.00;;;;5015486;28;20313;-73
2023/09/07 17:35:43;;;;;;;0.10;0.10;;;30.40;99.90;35.30;101584.00;;;;5032271;28;20182;-73
2023/09/07 17:38:38;;;;;;;0.10;0.10;;;30.30;99.90;34.40;101600.00;;;;5003408;28;20183;-73
2023/09/07 17:41:34;;;;;;;0.10;0.10;;;30.10;99.90;34.80;101589.00;;;;5011807;28;20249;-73
2023/09/07 17:44:09;;;;;;;0.10;0.10;;;30.00;99.90;34.90;101602.00;;;;5012605;28;20526;-73
2023/09/07 17:47:01;;;;;;;0.10;0.10;;;29.90;99.90;34.70;101576.00;;;;5010411;28;20209;-73
2023/09/07 17:49:41;;;;;;;0.10;0.10;;;29.90;99.90;34.50;101603.00;;;;5015422;28;20179;-73
2023/09/07 17:52:37;;;;;;;0.10;0.10;;;29.80;99.90;34.30;101585.00;;;;5029023;28;20195;-73
2023/09/07 17:55:10;;;;;;;0.20;0.20;;;29.50;99.90;34.30;101605.00;;;;5062412;28;20183;-73
2023/09/07 17:57:54;;;;;;;0.10;0.10;;;29.40;99.90;34.00;101612.00;;;;5031718;28;20649;-73
2023/09/07 18:00:47;;;;;;;0.10;0.10;;;29.20;99.90;34.00;101621.00;;;;5016968;28;20215;-73
2023/09/07 18:03:14;;;;;;;0.20;0.20;;;29.20;99.90;34.10;101591.00;;;;5033861;28;20191;-73
2023/09/07 18:06:03;;;;;;;0.10;0.10;;;29.20;99.90;34.40;101603.00;;;;5040622;28;20677;-73
2023/09/07 18:09:18;;;;;;;0.10;0.10;;;29.20;99.90;33.80;101626.00;;;;5039928;28;20262;-73
2023/09/07 18:13:00;;;;;;;1.05;0.95;;;29.20;99.90;33.80;101622.00;;;;5015030;28;20238;-73
2023/09/07 18:15:29;;;;;;;0.10;0.10;;;28.90;99.90;33.50;101626.00;;;;4973578;28;20196;-72
2023/09/07 18:18:25;;;;;;;0.13;0.13;;;28.80;99.90;33.70;101636.00;;;;4974112;28;20200;-73
2023/09/07 18:21:26;;;;;;;0.10;0.10;;;28.80;99.90;33.90;101632.00;;;;4957678;28;20191;-72
2023/09/07 18:24:37;;;;;;;0.10;0.10;;;28.90;99.90;33.20;101646.00;;;;4897685;29;20198;-72
2023/09/07 18:27:18;;;;;;;0.10;0.10;;;28.70;99.90;33.40;101646.00;;;;4859982;29;20204;-73
2023/09/07 18:30:18;;;;;;;0.20;0.20;;;28.60;99.90;33.50;101626.00;;;;4860770;29;20636;-72
2023/09/07 18:33:10;;;;;;;0.20;0.20;;;28.50;99.90;33.50;101626.00;;;;4929467;28;20224;-72
2023/09/07 18:36:17;;;;;;;1.10;1.10;;;28.50;99.90;33.40;101648.00;;;;4944389;28;20683;-72
2023/09/07 18:38:50;;;;;;;0.20;0.20;;;28.40;99.90;33.10;101663.00;;;;4943799;28;20283;-72
2023/09/07 18:42:17;;;;;;;0.20;0.20;;;28.30;99.90;32.90;101667.00;;;;4927913;28;20193;-73
2023/09/07 18:45:33;;;;;;;0.10;0.10;;;28.10;99.90;32.80;101666.00;;;;4931302;29;20194;-73
2023/09/07 18:48:24;;;;;;;0.20;0.20;;;28.10;99.90;32.90;101672.00;;;;4931125;29;20202;-73